createdAt,value
2022-12-03T00:02:23.845Z,2.84
2022-12-03T00:05:27.094Z,2.81
2022-12-03T00:08:29.755Z,2.80
2022-12-03T00:11:32.500Z,2.80
2022-12-03T00:14:36.882Z,2.84
2022-12-03T00:17:41.374Z,2.88
2022-12-03T00:20:43.892Z,2.77
2022-12-03T00:23:46.466Z,2.69
2022-12-03T00:26:48.929Z,2.65
2022-12-03T00:29:51.411Z,2.71
2022-12-03T00:32:53.920Z,2.68
2022-12-03T00:35:56.467Z,2.59
2022-12-03T00:38:58.883Z,2.59
2022-12-03T00:42:01.442Z,2.61
2022-12-03T00:45:04.260Z,2.56
2022-12-03T00:48:06.870Z,2.57
2022-12-03T00:51:09.591Z,2.54
2022-12-03T00:54:12.075Z,2.67
2022-12-03T00:57:14.647Z,2.60
2022-12-03T01:00:17.759Z,2.58
2022-12-03T01:03:20.365Z,2.53
2022-12-03T01:06:23.068Z,2.62
2022-12-03T01:09:25.537Z,2.73
2022-12-03T01:12:27.968Z,2.72
2022-12-03T01:15:30.352Z,2.69
2022-12-03T01:18:33.090Z,2.74
2022-12-03T01:21:35.577Z,2.73
2022-12-03T01:24:38.040Z,2.73
2022-12-03T01:27:40.588Z,2.73
2022-12-03T01:31:01.904Z,2.93
2022-12-03T01:34:04.980Z,2.91
2022-12-03T01:37:07.341Z,2.64
2022-12-03T01:40:16.203Z,2.66
2022-12-03T01:43:18.984Z,2.58
2022-12-03T01:46:25.177Z,2.49
2022-12-03T01:49:33.446Z,2.31
2022-12-03T01:52:38.896Z,2.41
2022-12-03T01:55:48.317Z,2.44
2022-12-03T01:58:51.142Z,2.55
2022-12-03T02:01:53.647Z,2.54
2022-12-03T02:04:57.304Z,2.80
2022-12-03T02:08:01.263Z,2.67
2022-12-03T02:11:17.488Z,2.66
2022-12-03T02:14:21.856Z,2.75
2022-12-03T02:17:25.454Z,2.77
2022-12-03T02:20:28.112Z,2.82
2022-12-03T02:23:57.526Z,2.99
2022-12-03T02:26:59.941Z,2.69
2022-12-03T02:30:02.552Z,2.78
2022-12-03T02:33:05.891Z,2.76
2022-12-03T02:36:09.104Z,2.69
2022-12-03T02:39:11.576Z,2.75
2022-12-03T02:42:32.554Z,2.69
2022-12-03T02:45:48.432Z,2.63
2022-12-03T02:48:50.944Z,2.77
2022-12-03T02:51:53.644Z,2.87
2022-12-03T02:54:56.361Z,2.99
2022-12-03T02:57:58.948Z,2.95
2022-12-03T03:01:03.834Z,2.68
2022-12-03T03:04:06.957Z,2.63
2022-12-03T03:07:09.802Z,2.64
2022-12-03T03:10:15.373Z,2.65
2022-12-03T03:13:19.432Z,2.77
2022-12-03T03:16:21.974Z,2.61
2022-12-03T03:19:26.365Z,2.55
2022-12-03T03:22:38.420Z,2.51
2022-12-03T03:25:44.209Z,2.50
2022-12-03T03:28:50.490Z,2.56
2022-12-03T03:31:54.456Z,2.52
2022-12-03T03:34:57.118Z,2.37
2022-12-03T03:37:59.889Z,2.34
2022-12-03T03:41:05.667Z,2.52
2022-12-03T03:44:09.442Z,2.23
2022-12-03T03:47:12.420Z,2.28
2022-12-03T03:50:16.412Z,2.33
2022-12-03T03:53:21.089Z,2.35
2022-12-03T03:56:23.658Z,2.33
2022-12-03T03:59:26.458Z,2.26
2022-12-03T04:02:28.966Z,2.21
2022-12-03T04:05:31.787Z,2.15
2022-12-03T04:08:34.631Z,2.08
2022-12-03T04:11:55.551Z,2.09
2022-12-03T04:14:58.584Z,2.10
2022-12-03T04:18:19.652Z,2.28
2022-12-03T04:21:41.984Z,2.25
2022-12-03T04:24:44.356Z,2.28
2022-12-03T04:28:05.642Z,2.22
2022-12-03T04:31:29.524Z,2.13
2022-12-03T04:34:50.938Z,2.07
2022-12-03T04:37:53.569Z,2.08
2022-12-03T04:41:02.038Z,2.00
2022-12-03T04:44:23.122Z,1.97
2022-12-03T04:47:25.585Z,1.97
2022-12-03T04:50:28.250Z,1.98
2022-12-03T04:53:30.638Z,1.95
2022-12-03T04:56:33.087Z,1.93
2022-12-03T04:59:36.361Z,2.04
2022-12-03T05:02:39.155Z,2.09
2022-12-03T05:05:41.938Z,2.08
2022-12-03T05:08:44.560Z,2.09
2022-12-03T05:11:47.318Z,2.13
2022-12-03T05:14:49.729Z,2.12
2022-12-03T05:17:52.491Z,2.04
2022-12-03T05:20:55.149Z,1.98
2022-12-03T05:23:57.884Z,1.95
2022-12-03T05:27:00.334Z,1.89
2022-12-03T05:30:02.885Z,1.81
2022-12-03T05:33:05.417Z,1.71
2022-12-03T05:36:08.134Z,1.61
2022-12-03T05:39:10.594Z,1.46
2022-12-03T05:42:31.625Z,1.48
2022-12-03T05:45:37.416Z,1.31
2022-12-03T05:48:48.423Z,1.08
2022-12-03T05:51:56.671Z,0.99
2022-12-03T05:55:01.030Z,0.92
2022-12-03T05:58:04.990Z,0.88
2022-12-03T06:01:07.536Z,0.97
2022-12-03T06:04:10.294Z,1.04
2022-12-03T06:07:14.266Z,0.98
2022-12-03T06:10:20.853Z,0.88
2022-12-03T06:13:23.623Z,0.90
2022-12-03T06:16:26.170Z,0.85
2022-12-03T06:19:28.765Z,0.75
2022-12-03T06:22:31.302Z,0.76
2022-12-03T06:25:33.724Z,0.91
2022-12-03T06:28:36.197Z,0.85
2022-12-03T06:31:38.892Z,1.15
2022-12-03T06:34:41.754Z,1.14
2022-12-03T06:37:44.221Z,1.11
2022-12-03T06:40:46.652Z,0.91
2022-12-03T06:43:49.120Z,0.92
2022-12-03T06:46:51.882Z,0.98
2022-12-03T06:49:54.475Z,0.82
2022-12-03T06:52:57.022Z,0.98
2022-12-03T06:56:00.063Z,0.91
2022-12-03T06:59:02.660Z,0.97
2022-12-03T07:02:05.514Z,0.97
2022-12-03T07:05:08.547Z,1.10
2022-12-03T07:08:11.126Z,1.00
2022-12-03T07:11:31.866Z,0.98
2022-12-03T07:14:34.585Z,1.01
2022-12-03T07:17:37.317Z,1.02
2022-12-03T07:20:39.705Z,1.10
2022-12-03T07:23:42.268Z,1.07
2022-12-03T07:26:45.044Z,1.24
2022-12-03T07:29:47.481Z,1.25
2022-12-03T07:32:50.403Z,1.25
2022-12-03T07:35:52.812Z,1.20
2022-12-03T07:38:55.279Z,1.18
2022-12-03T07:41:57.843Z,1.23
2022-12-03T07:45:00.341Z,1.26
2022-12-03T07:48:02.859Z,1.38
2022-12-03T07:51:05.624Z,1.26
2022-12-03T07:54:08.161Z,1.33
2022-12-03T07:57:10.877Z,1.54
2022-12-03T08:00:14.718Z,1.55
2022-12-03T08:03:17.155Z,1.63
2022-12-03T08:06:20.848Z,1.62
2022-12-03T08:09:23.539Z,1.71
2022-12-03T08:12:40.430Z,1.87
2022-12-03T08:15:43.433Z,2.09
2022-12-03T08:18:47.286Z,2.01
2022-12-03T08:21:49.855Z,2.05
2022-12-03T08:24:52.529Z,2.23
2022-12-03T08:28:00.334Z,2.34
2022-12-03T08:31:20.174Z,2.47
2022-12-03T08:34:26.564Z,2.62
2022-12-03T08:37:29.962Z,2.76
2022-12-03T08:40:37.440Z,2.85
2022-12-03T08:43:42.874Z,2.91
2022-12-03T08:46:45.472Z,2.97
2022-12-03T08:50:03.341Z,3.08
2022-12-03T08:53:18.777Z,3.32
2022-12-03T08:56:30.458Z,3.34
2022-12-03T08:59:32.887Z,3.49
2022-12-03T09:02:35.684Z,3.62
2022-12-03T09:05:38.115Z,3.74
2022-12-03T09:08:40.583Z,3.77
2022-12-03T09:11:43.514Z,3.73
2022-12-03T09:14:46.019Z,3.82
2022-12-03T09:17:48.992Z,3.83
2022-12-03T09:20:51.549Z,3.95
2022-12-03T09:23:54.004Z,4.01
2022-12-03T09:26:56.617Z,3.92
2022-12-03T09:29:59.138Z,3.97
2022-12-03T09:33:01.844Z,4.05
2022-12-03T09:36:04.997Z,4.12
2022-12-03T09:39:07.756Z,4.19
2022-12-03T09:42:11.380Z,4.27
2022-12-03T09:45:16.033Z,4.34
2022-12-03T09:48:20.734Z,4.46
2022-12-03T09:51:30.327Z,4.52
2022-12-03T09:54:34.502Z,4.52
2022-12-03T09:57:37.021Z,4.52
2022-12-03T10:00:41.268Z,4.55
2022-12-03T10:03:49.664Z,4.64
2022-12-03T10:06:52.344Z,4.69
2022-12-03T10:09:54.988Z,4.77
2022-12-03T10:12:57.843Z,4.82
2022-12-03T10:16:01.088Z,4.94
2022-12-03T10:19:03.585Z,4.93
2022-12-03T10:22:06.795Z,4.84
2022-12-03T10:25:09.553Z,4.88
2022-12-03T10:28:12.285Z,4.98
2022-12-03T10:31:15.607Z,4.96
2022-12-03T10:34:47.618Z,5.14
2022-12-03T10:38:00.915Z,5.13
2022-12-03T10:41:20.921Z,5.21
2022-12-03T10:44:30.550Z,5.34
2022-12-03T10:47:33.100Z,5.33
2022-12-03T10:50:36.196Z,5.51
2022-12-03T10:53:40.943Z,5.57
2022-12-03T10:56:44.617Z,5.40
2022-12-03T10:59:47.565Z,5.47
2022-12-03T11:02:56.760Z,5.64
2022-12-03T11:06:06.139Z,5.61
2022-12-03T11:09:21.070Z,5.64
2022-12-03T11:12:27.740Z,5.83
2022-12-03T11:15:45.583Z,5.76
2022-12-03T11:18:51.087Z,5.86
2022-12-03T11:22:05.725Z,5.85
2022-12-03T11:25:29.077Z,5.98
2022-12-03T11:28:32.796Z,5.92
2022-12-03T11:31:48.567Z,6.01
2022-12-03T11:34:51.313Z,6.05
2022-12-03T11:37:54.203Z,6.06
2022-12-03T11:41:12.090Z,6.13
2022-12-03T11:44:32.187Z,6.14
2022-12-03T11:47:58.026Z,6.26
2022-12-03T11:51:00.544Z,6.47
2022-12-03T11:54:03.118Z,6.37
2022-12-03T11:57:25.567Z,6.40
2022-12-03T12:00:28.656Z,6.40
2022-12-03T12:03:49.767Z,6.43
2022-12-03T12:06:53.603Z,6.44
2022-12-03T12:09:57.395Z,6.47
2022-12-03T12:13:00.435Z,6.51
2022-12-03T12:16:07.486Z,6.57
2022-12-03T12:19:29.251Z,6.62
2022-12-03T12:22:31.927Z,6.70
2022-12-03T12:25:38.314Z,6.76
2022-12-03T12:28:41.125Z,6.79
2022-12-03T12:31:44.359Z,6.82
2022-12-03T12:34:53.833Z,6.81
2022-12-03T12:38:16.582Z,6.73
2022-12-03T12:41:19.112Z,6.77
2022-12-03T12:44:23.666Z,6.78
2022-12-03T12:47:26.297Z,6.68
2022-12-03T12:50:31.421Z,6.70
2022-12-03T12:53:35.608Z,6.66
2022-12-03T12:56:39.194Z,6.72
2022-12-03T12:59:41.984Z,6.78
2022-12-03T13:02:58.503Z,6.77
2022-12-03T13:06:01.988Z,6.73
2022-12-03T13:09:14.621Z,6.68
2022-12-03T13:12:23.130Z,6.66
2022-12-03T13:15:39.250Z,6.58
2022-12-03T13:18:49.137Z,6.58
2022-12-03T13:21:54.458Z,6.53
2022-12-03T13:24:58.669Z,6.51
2022-12-03T13:28:01.228Z,6.59
2022-12-03T13:31:22.035Z,6.67
2022-12-03T13:34:27.289Z,6.59
2022-12-03T13:37:31.463Z,6.51
2022-12-03T13:40:36.632Z,6.40
2022-12-03T13:43:44.515Z,6.35
2022-12-03T13:46:47.675Z,6.29
2022-12-03T13:50:03.986Z,6.20
2022-12-03T13:53:48.039Z,6.14
2022-12-03T13:56:50.912Z,6.14
2022-12-03T13:59:53.901Z,6.09
2022-12-03T14:02:56.891Z,6.07
2022-12-03T14:05:59.420Z,6.05
2022-12-03T14:09:01.924Z,5.98
2022-12-03T14:12:23.067Z,5.92
2022-12-03T14:15:26.516Z,5.79
2022-12-03T14:18:29.163Z,5.69
2022-12-03T14:21:31.917Z,5.58
2022-12-03T14:24:34.510Z,5.45
2022-12-03T14:27:37.216Z,5.37
2022-12-03T14:30:39.636Z,5.31
2022-12-03T14:33:42.289Z,5.34
2022-12-03T14:36:44.746Z,5.34
2022-12-03T14:39:47.432Z,5.18
2022-12-03T14:42:50.133Z,5.00
2022-12-03T14:45:52.966Z,4.98
2022-12-03T14:48:56.683Z,4.98
2022-12-03T14:51:59.965Z,4.86
2022-12-03T14:55:02.500Z,4.70
2022-12-03T14:58:05.238Z,4.57
2022-12-03T15:01:07.873Z,4.47
2022-12-03T15:04:10.784Z,4.62
2022-12-03T15:07:13.280Z,4.55
2022-12-03T15:10:16.902Z,4.38
2022-12-03T15:13:19.340Z,4.28
2022-12-03T15:16:22.019Z,4.19
2022-12-03T15:19:24.898Z,3.92
2022-12-03T15:22:27.636Z,3.71
2022-12-03T15:25:30.732Z,3.62
2022-12-03T15:28:33.786Z,3.59
2022-12-03T15:31:36.291Z,3.53
2022-12-03T15:34:39.692Z,3.41
2022-12-03T15:37:42.445Z,3.29
2022-12-03T15:40:45.499Z,3.27
2022-12-03T15:43:52.724Z,3.03
2022-12-03T15:46:55.220Z,2.96
2022-12-03T15:49:57.728Z,2.97
2022-12-03T15:53:00.232Z,3.15
2022-12-03T15:56:02.885Z,3.04
2022-12-03T15:59:05.560Z,2.78
2022-12-03T16:02:08.138Z,2.71
2022-12-03T16:05:12.780Z,2.65
2022-12-03T16:08:15.563Z,2.47
2022-12-03T16:11:19.062Z,2.46
2022-12-03T16:14:21.504Z,2.35
2022-12-03T16:17:24.369Z,2.29
2022-12-03T16:20:27.292Z,2.23
2022-12-03T16:23:29.900Z,2.41
2022-12-03T16:26:32.650Z,2.27
2022-12-03T16:29:35.466Z,2.24
2022-12-03T16:32:38.032Z,2.14
2022-12-03T16:35:40.539Z,2.06
2022-12-03T16:38:43.286Z,1.99
2022-12-03T16:41:45.960Z,1.95
2022-12-03T16:45:08.796Z,1.92
2022-12-03T16:48:11.231Z,1.97
2022-12-03T16:51:14.108Z,2.09
2022-12-03T16:54:16.772Z,1.92
2022-12-03T16:57:19.176Z,1.95
2022-12-03T17:00:22.040Z,2.00
2022-12-03T17:03:28.962Z,1.94
2022-12-03T17:06:36.492Z,1.98
2022-12-03T17:09:39.002Z,2.03
2022-12-03T17:13:08.330Z,1.99
2022-12-03T17:16:06.839Z,2.08
2022-12-03T17:19:09.513Z,2.11
2022-12-03T17:22:12.111Z,2.05
2022-12-03T17:25:14.777Z,2.11
2022-12-03T17:28:17.234Z,1.99
2022-12-03T17:31:20.384Z,1.92
2022-12-03T17:34:22.819Z,1.83
2022-12-03T17:37:25.301Z,1.80
2022-12-03T17:40:28.127Z,1.92
2022-12-03T17:43:30.906Z,1.88
2022-12-03T17:46:33.462Z,1.71
2022-12-03T17:49:36.095Z,1.69
2022-12-03T17:52:38.832Z,1.66
2022-12-03T17:55:44.769Z,1.59
2022-12-03T17:58:48.090Z,1.55
2022-12-03T18:01:50.627Z,1.54
2022-12-03T18:04:53.173Z,1.55
2022-12-03T18:07:55.721Z,1.56
2022-12-03T18:10:58.345Z,1.56
2022-12-03T18:14:01.511Z,1.49
2022-12-03T18:17:04.038Z,1.54
2022-12-03T18:20:08.647Z,1.47
2022-12-03T18:23:12.055Z,1.41
2022-12-03T18:26:14.938Z,1.56
2022-12-03T18:29:17.962Z,1.41
2022-12-03T18:32:28.743Z,1.37
2022-12-03T18:35:32.349Z,1.40
2022-12-03T18:38:35.031Z,1.44
2022-12-03T18:41:37.704Z,1.49
2022-12-03T18:44:42.742Z,1.46
2022-12-03T18:47:49.371Z,1.41
2022-12-03T18:50:52.195Z,1.43
2022-12-03T18:53:54.963Z,1.51
2022-12-03T18:56:57.671Z,1.44
2022-12-03T19:00:00.366Z,1.38
2022-12-03T19:03:04.369Z,1.26
2022-12-03T19:06:17.186Z,1.41
2022-12-03T19:09:22.085Z,1.25
2022-12-03T19:12:25.457Z,1.25
2022-12-03T19:15:28.218Z,1.21
2022-12-03T19:18:31.245Z,1.21
2022-12-03T19:21:34.340Z,1.22
2022-12-03T19:24:37.184Z,1.22
2022-12-03T19:27:42.272Z,1.19
2022-12-03T19:30:56.094Z,1.15
2022-12-03T19:34:01.086Z,1.10
2022-12-03T19:37:07.529Z,1.06
2022-12-03T19:40:10.491Z,1.12
2022-12-03T19:43:13.623Z,1.21
2022-12-03T19:46:17.041Z,1.16
2022-12-03T19:49:21.366Z,1.20
2022-12-03T19:52:24.173Z,1.27
2022-12-03T19:55:26.887Z,1.28
2022-12-03T19:58:29.991Z,1.32
2022-12-03T20:01:35.351Z,1.32
2022-12-03T20:04:38.478Z,1.31
2022-12-03T20:07:41.233Z,1.37
2022-12-03T20:10:43.784Z,1.37
2022-12-03T20:13:53.713Z,1.43
2022-12-03T20:16:56.344Z,1.40
2022-12-03T20:19:59.489Z,1.39
2022-12-03T20:23:02.298Z,1.37
2022-12-03T20:26:10.562Z,1.32
2022-12-03T20:29:13.941Z,1.30
2022-12-03T20:32:16.809Z,1.29
2022-12-03T20:35:19.570Z,1.22
2022-12-03T20:38:23.813Z,1.28
2022-12-03T20:41:27.800Z,1.16
2022-12-03T20:44:30.179Z,1.11
2022-12-03T20:47:32.843Z,1.15
2022-12-03T20:50:38.535Z,1.28
2022-12-03T20:53:43.170Z,1.22
2022-12-03T20:56:45.791Z,1.20
2022-12-03T20:59:48.745Z,1.22
2022-12-03T21:02:52.277Z,1.20
2022-12-03T21:06:01.419Z,1.16
2022-12-03T21:09:06.295Z,1.20
2022-12-03T21:12:09.062Z,1.25
2022-12-03T21:15:11.895Z,1.27
2022-12-03T21:18:16.611Z,1.27
2022-12-03T21:21:19.775Z,1.53
2022-12-03T21:24:22.534Z,1.42
2022-12-03T21:27:25.008Z,1.40
2022-12-03T21:30:27.940Z,1.51
2022-12-03T21:33:31.333Z,1.42
2022-12-03T21:36:34.264Z,1.22
2022-12-03T21:39:36.970Z,1.30
2022-12-03T21:42:39.608Z,1.31
2022-12-03T21:45:42.901Z,1.26
2022-12-03T21:48:45.716Z,1.26
2022-12-03T21:51:48.375Z,1.25
2022-12-03T21:54:54.419Z,1.45
2022-12-03T21:57:57.058Z,1.38
2022-12-03T22:00:59.594Z,1.30
2022-12-03T22:04:02.041Z,1.30
2022-12-03T22:07:06.780Z,1.24
2022-12-03T22:10:11.820Z,1.25
2022-12-03T22:13:14.683Z,1.21
2022-12-03T22:16:22.007Z,1.16
2022-12-03T22:19:25.620Z,1.16
2022-12-03T22:22:28.122Z,1.12
2022-12-03T22:25:30.692Z,1.19
2022-12-03T22:28:34.224Z,1.13
2022-12-03T22:31:36.884Z,1.10
2022-12-03T22:34:41.248Z,1.05
2022-12-03T22:37:43.743Z,1.02
2022-12-03T22:40:47.153Z,1.08
2022-12-03T22:43:50.030Z,1.20
2022-12-03T22:46:52.593Z,1.31
2022-12-03T22:49:57.466Z,1.15
2022-12-03T22:53:00.028Z,1.15
2022-12-03T22:56:02.520Z,1.10
2022-12-03T22:59:05.592Z,1.07
2022-12-03T23:02:08.052Z,1.02
2022-12-03T23:05:10.445Z,1.13
2022-12-03T23:08:16.857Z,1.32
2022-12-03T23:11:20.019Z,1.33
2022-12-03T23:14:22.515Z,1.22
2022-12-03T23:17:24.983Z,1.08
2022-12-03T23:20:28.242Z,1.21
2022-12-03T23:23:30.679Z,1.09
2022-12-03T23:26:38.128Z,0.90
2022-12-03T23:29:40.687Z,0.83
2022-12-03T23:32:44.495Z,0.86
2022-12-03T23:35:47.056Z,1.01
2022-12-03T23:38:50.077Z,0.98
2022-12-03T23:41:52.903Z,0.93
2022-12-03T23:44:55.372Z,1.02
2022-12-03T23:47:58.477Z,1.08
2022-12-03T23:51:22.545Z,1.10
2022-12-03T23:54:24.986Z,1.19
2022-12-03T23:57:27.600Z,1.21
